createdAt,value
2022-10-11T00:01:19.227Z,100.00
2022-10-11T00:03:46.055Z,100.00
2022-10-11T00:06:12.790Z,100.00
2022-10-11T00:08:39.267Z,100.00
2022-10-11T00:11:08.031Z,100.00
2022-10-11T00:13:34.805Z,100.00
2022-10-11T00:16:01.770Z,100.00
2022-10-11T00:18:28.398Z,100.00
2022-10-11T00:21:02.586Z,100.00
2022-10-11T00:23:29.558Z,100.00
2022-10-11T00:26:02.112Z,100.00
2022-10-11T00:28:29.353Z,100.00
2022-10-11T00:30:56.435Z,100.00
2022-10-11T00:33:23.062Z,100.00
2022-10-11T00:35:49.875Z,100.00
2022-10-11T00:38:16.537Z,100.00
2022-10-11T00:40:43.480Z,100.00
2022-10-11T00:43:18.559Z,100.00
2022-10-11T00:46:25.662Z,100.00
2022-10-11T00:48:59.861Z,100.00
2022-10-11T00:51:46.589Z,100.00
2022-10-11T00:54:15.853Z,100.00
2022-10-11T00:56:49.090Z,100.00
2022-10-11T00:59:24.180Z,100.00
2022-10-11T01:01:51.776Z,100.00
2022-10-11T01:04:18.530Z,100.00
2022-10-11T01:06:47.910Z,100.00
2022-10-11T01:09:14.669Z,100.00
2022-10-11T01:11:42.654Z,100.00
2022-10-11T01:14:43.551Z,100.00
2022-10-11T01:17:24.305Z,100.00
2022-10-11T01:20:09.838Z,100.00
2022-10-11T01:23:15.614Z,100.00
2022-10-11T01:26:01.230Z,100.00
2022-10-11T01:28:38.270Z,100.00
2022-10-11T01:31:17.035Z,100.00
2022-10-11T01:34:02.323Z,100.00
2022-10-11T01:36:37.522Z,100.00
2022-10-11T01:39:09.414Z,100.00
2022-10-11T01:41:46.784Z,100.00
2022-10-11T01:44:13.842Z,100.00
2022-10-11T01:46:41.398Z,100.00
2022-10-11T01:49:08.567Z,100.00
2022-10-11T01:51:45.088Z,100.00
2022-10-11T01:54:49.839Z,100.00
2022-10-11T01:57:33.074Z,100.00
2022-10-11T02:00:13.108Z,100.00
2022-10-11T02:02:39.576Z,100.00
2022-10-11T02:05:10.413Z,100.00
2022-10-11T02:07:49.574Z,100.00
2022-10-11T02:10:22.070Z,100.00
2022-10-11T02:12:53.239Z,100.00
2022-10-11T02:15:20.851Z,100.00
2022-10-11T02:17:49.939Z,100.00
2022-10-11T02:20:20.415Z,100.00
2022-10-11T02:22:49.615Z,100.00
2022-10-11T02:25:26.782Z,100.00
2022-10-11T02:27:55.844Z,100.00
2022-10-11T02:30:22.497Z,100.00
2022-10-11T02:32:49.749Z,100.00
2022-10-11T02:35:16.663Z,100.00
2022-10-11T02:38:03.875Z,100.00
2022-10-11T02:40:33.504Z,100.00
2022-10-11T02:43:04.181Z,100.00
2022-10-11T02:45:35.200Z,100.00
2022-10-11T02:48:02.683Z,100.00
2022-10-11T02:50:29.454Z,100.00
2022-10-11T02:52:56.119Z,100.00
2022-10-11T02:55:22.620Z,100.00
2022-10-11T02:57:49.176Z,100.00
2022-10-11T03:00:15.957Z,100.00
2022-10-11T03:02:42.410Z,100.00
2022-10-11T03:05:09.087Z,100.00
2022-10-11T03:07:35.564Z,100.00
2022-10-11T03:10:05.679Z,100.00
2022-10-11T03:12:32.164Z,100.00
2022-10-11T03:14:58.647Z,100.00
2022-10-11T03:17:36.298Z,100.00
2022-10-11T03:20:04.683Z,100.00
2022-10-11T03:22:31.251Z,100.00
2022-10-11T03:25:02.715Z,100.00
2022-10-11T03:27:31.409Z,100.00
2022-10-11T03:29:58.099Z,100.00
2022-10-11T03:32:24.794Z,100.00
2022-10-11T03:34:51.197Z,100.00
2022-10-11T03:37:18.214Z,100.00
2022-10-11T03:39:45.712Z,100.00
2022-10-11T03:42:12.873Z,100.00
2022-10-11T03:45:08.042Z,100.00
2022-10-11T03:47:53.893Z,100.00
2022-10-11T03:50:20.372Z,100.00
2022-10-11T03:52:47.028Z,100.00
2022-10-11T03:55:13.712Z,100.00
2022-10-11T03:57:40.112Z,100.00
2022-10-11T04:00:07.629Z,100.00
2022-10-11T04:02:38.976Z,100.00
2022-10-11T04:05:06.454Z,100.00
2022-10-11T04:07:33.779Z,100.00
2022-10-11T04:10:01.490Z,100.00
2022-10-11T04:12:28.131Z,100.00
2022-10-11T04:14:54.949Z,100.00
2022-10-11T04:17:22.011Z,100.00
2022-10-11T04:19:49.070Z,100.00
2022-10-11T04:22:16.503Z,100.00
2022-10-11T04:24:42.906Z,100.00
2022-10-11T04:27:09.742Z,100.00
2022-10-11T04:29:36.152Z,100.00
2022-10-11T04:32:02.653Z,100.00
2022-10-11T04:34:29.219Z,100.00
2022-10-11T04:37:01.006Z,100.00
2022-10-11T04:39:27.682Z,100.00
2022-10-11T04:41:54.129Z,100.00
2022-10-11T04:44:20.544Z,100.00
2022-10-11T04:46:46.998Z,100.00
2022-10-11T04:49:13.768Z,100.00
2022-10-11T04:51:40.195Z,100.00
2022-10-11T04:54:13.038Z,100.00
2022-10-11T04:56:39.673Z,100.00
2022-10-11T04:59:06.252Z,100.00
2022-10-11T05:01:33.046Z,100.00
2022-10-11T05:04:02.716Z,100.00
2022-10-11T05:06:29.325Z,100.00
2022-10-11T05:08:55.749Z,100.00
2022-10-11T05:11:22.607Z,100.00
2022-10-11T05:13:49.297Z,100.00
2022-10-11T05:16:16.740Z,100.00
2022-10-11T05:18:43.868Z,100.00
2022-10-11T05:21:25.014Z,100.00
2022-10-11T05:24:00.979Z,100.00
2022-10-11T05:26:28.831Z,100.00
2022-10-11T05:28:55.814Z,100.00
2022-10-11T05:31:23.332Z,100.00
2022-10-11T05:33:49.947Z,100.00
2022-10-11T05:36:16.756Z,100.00
2022-10-11T05:38:43.245Z,100.00
2022-10-11T05:41:11.496Z,100.00
2022-10-11T05:43:37.947Z,100.00
2022-10-11T05:46:04.844Z,100.00
2022-10-11T05:48:31.449Z,100.00
2022-10-11T05:51:03.058Z,100.00
2022-10-11T05:53:30.048Z,100.00
2022-10-11T05:55:57.658Z,100.00
2022-10-11T05:58:24.324Z,100.00
2022-10-11T06:00:50.842Z,100.00
2022-10-11T06:03:17.623Z,100.00
2022-10-11T06:05:44.126Z,100.00
2022-10-11T06:08:11.003Z,100.00
2022-10-11T06:10:38.317Z,100.00
2022-10-11T06:13:05.610Z,100.00
2022-10-11T06:15:32.389Z,100.00
2022-10-11T06:17:59.432Z,93.70
2022-10-11T06:20:34.299Z,88.90
2022-10-11T06:23:01.185Z,83.97
2022-10-11T06:25:27.579Z,77.99
2022-10-11T06:27:54.260Z,73.06
2022-10-11T06:30:20.982Z,71.82
2022-10-11T06:32:47.416Z,69.37
2022-10-11T06:35:13.993Z,67.51
2022-10-11T06:37:40.876Z,63.89
2022-10-11T06:40:07.674Z,61.49
2022-10-11T06:42:34.055Z,60.95
2022-10-11T06:45:00.495Z,60.61
2022-10-11T06:47:27.420Z,57.93
2022-10-11T06:49:53.797Z,56.45
2022-10-11T06:52:20.181Z,57.60
2022-10-11T06:54:46.528Z,56.01
2022-10-11T06:57:13.256Z,54.43
2022-10-11T06:59:39.640Z,53.92
2022-10-11T07:02:06.093Z,51.77
2022-10-11T07:04:33.827Z,51.24
2022-10-11T07:07:00.404Z,48.92
2022-10-11T07:09:26.785Z,50.23
2022-10-11T07:11:53.214Z,51.74
2022-10-11T07:14:19.630Z,50.07
2022-10-11T07:16:46.017Z,45.49
2022-10-11T07:19:12.437Z,45.99
2022-10-11T07:21:38.799Z,45.15
2022-10-11T07:24:06.225Z,45.06
2022-10-11T07:26:38.354Z,44.66
2022-10-11T07:29:08.291Z,43.69
2022-10-11T07:31:38.148Z,43.62
2022-10-11T07:34:05.641Z,44.65
2022-10-11T07:36:33.205Z,43.48
2022-10-11T07:39:01.417Z,45.01
2022-10-11T07:41:28.004Z,43.92
2022-10-11T07:43:54.987Z,43.06
2022-10-11T07:46:21.405Z,45.53
2022-10-11T07:48:49.994Z,47.46
2022-10-11T07:51:19.543Z,46.71
2022-10-11T07:53:50.867Z,45.94
2022-10-11T07:56:19.859Z,43.81
2022-10-11T07:58:50.887Z,43.29
2022-10-11T08:01:17.649Z,42.52
2022-10-11T08:03:44.293Z,40.04
2022-10-11T08:06:12.015Z,42.05
2022-10-11T08:08:38.428Z,41.66
2022-10-11T08:11:05.026Z,41.40
2022-10-11T08:13:32.143Z,39.57
2022-10-11T08:15:58.782Z,39.90
2022-10-11T08:18:25.673Z,39.43
2022-10-11T08:20:52.418Z,39.09
2022-10-11T08:23:19.710Z,38.40
2022-10-11T08:25:47.762Z,40.07
2022-10-11T08:28:17.154Z,39.65
2022-10-11T08:30:51.842Z,38.14
2022-10-11T08:33:19.183Z,37.65
2022-10-11T08:35:46.129Z,38.98
2022-10-11T08:38:12.539Z,39.12
2022-10-11T08:40:45.945Z,46.44
2022-10-11T08:43:18.596Z,46.57
2022-10-11T08:45:54.543Z,46.99
2022-10-11T08:48:25.843Z,50.72
2022-10-11T08:50:54.510Z,48.97
2022-10-11T08:53:53.987Z,47.24
2022-10-11T08:56:20.889Z,49.50
2022-10-11T08:58:53.864Z,49.36
2022-10-11T09:01:27.629Z,51.76
2022-10-11T09:03:54.169Z,46.65
2022-10-11T09:06:23.691Z,44.49
2022-10-11T09:08:59.363Z,44.50
2022-10-11T09:12:03.517Z,42.62
2022-10-11T09:14:35.945Z,42.52
2022-10-11T09:17:11.347Z,39.52
2022-10-11T09:20:18.222Z,39.17
2022-10-11T09:23:03.117Z,39.32
2022-10-11T09:25:51.084Z,37.40
2022-10-11T09:28:50.339Z,35.27
2022-10-11T09:31:19.066Z,34.28
2022-10-11T09:33:50.565Z,33.98
2022-10-11T09:36:35.017Z,36.60
2022-10-11T09:39:24.027Z,39.23
2022-10-11T09:41:59.594Z,43.11
2022-10-11T09:44:29.067Z,46.33
2022-10-11T09:46:56.908Z,50.72
2022-10-11T09:49:29.546Z,47.19
2022-10-11T09:52:02.443Z,42.94
2022-10-11T09:54:48.432Z,40.11
2022-10-11T09:57:31.870Z,37.05
2022-10-11T10:00:14.113Z,37.68
2022-10-11T10:02:50.189Z,36.94
2022-10-11T10:05:19.075Z,43.76
2022-10-11T10:08:10.686Z,46.64
2022-10-11T10:10:45.374Z,43.83
2022-10-11T10:13:58.385Z,44.24
2022-10-11T10:16:27.481Z,40.63
2022-10-11T10:18:55.946Z,40.75
2022-10-11T10:21:28.523Z,39.07
2022-10-11T10:23:56.051Z,39.21
2022-10-11T10:26:25.608Z,40.53
2022-10-11T10:28:58.129Z,43.47
2022-10-11T10:32:08.797Z,44.86
2022-10-11T10:34:30.298Z,47.05
2022-10-11T10:37:02.300Z,45.59
2022-10-11T10:39:48.253Z,43.98
2022-10-11T10:42:17.327Z,38.47
2022-10-11T10:44:44.289Z,37.51
2022-10-11T10:47:20.964Z,35.84
2022-10-11T10:49:58.325Z,33.36
2022-10-11T10:53:03.763Z,35.52
2022-10-11T10:55:45.742Z,33.69
2022-10-11T10:58:33.607Z,34.33
2022-10-11T11:01:08.957Z,33.83
2022-10-11T11:03:44.199Z,35.73
2022-10-11T11:06:18.789Z,37.84
2022-10-11T11:08:54.221Z,37.53
2022-10-11T11:11:46.622Z,36.41
2022-10-11T11:14:31.986Z,37.78
2022-10-11T11:17:29.066Z,39.65
2022-10-11T11:20:17.431Z,38.99
2022-10-11T11:23:09.169Z,37.63
2022-10-11T11:26:12.982Z,37.83
2022-10-11T11:28:48.680Z,37.33
2022-10-11T11:31:54.278Z,38.13
2022-10-11T11:34:26.335Z,38.45
2022-10-11T11:36:58.579Z,38.15
2022-10-11T11:39:34.516Z,40.53
2022-10-11T11:42:18.659Z,40.38
2022-10-11T11:44:47.738Z,38.14
2022-10-11T11:47:26.336Z,38.77
2022-10-11T11:50:01.280Z,41.86
2022-10-11T11:52:39.651Z,41.11
2022-10-11T11:55:30.885Z,43.62
2022-10-11T11:58:07.718Z,46.05
2022-10-11T12:00:55.055Z,44.34
2022-10-11T12:03:28.737Z,45.93
2022-10-11T12:06:25.243Z,46.19
2022-10-11T12:09:09.754Z,44.09
2022-10-11T12:11:52.883Z,43.61
2022-10-11T12:14:34.193Z,42.71
2022-10-11T12:17:19.804Z,39.63
2022-10-11T12:20:01.373Z,38.60
2022-10-11T12:22:27.713Z,36.24
2022-10-11T12:24:55.769Z,39.70
2022-10-11T12:27:42.612Z,35.35
2022-10-11T12:30:53.384Z,36.25
2022-10-11T12:33:26.261Z,40.01
2022-10-11T12:35:52.654Z,38.09
2022-10-11T12:38:23.749Z,39.34
2022-10-11T12:40:57.010Z,39.42
2022-10-11T12:43:27.236Z,36.51
2022-10-11T12:45:53.737Z,34.98
2022-10-11T12:48:40.784Z,36.81
2022-10-11T12:51:22.836Z,37.16
2022-10-11T12:54:25.876Z,37.42
2022-10-11T12:56:54.503Z,36.42
2022-10-11T12:59:24.545Z,34.12
2022-10-11T13:01:55.879Z,34.27
2022-10-11T13:04:25.767Z,35.63
2022-10-11T13:06:54.767Z,36.83
2022-10-11T13:09:32.708Z,36.74
2022-10-11T13:12:04.174Z,35.40
2022-10-11T13:14:35.937Z,35.83
2022-10-11T13:17:02.439Z,37.18
2022-10-11T13:19:33.603Z,37.96
2022-10-11T13:22:03.349Z,37.74
2022-10-11T13:24:36.708Z,37.76
2022-10-11T13:27:03.810Z,38.93
2022-10-11T13:29:40.635Z,37.07
2022-10-11T13:32:20.729Z,36.41
2022-10-11T13:34:49.375Z,36.31
2022-10-11T13:37:18.048Z,35.90
2022-10-11T13:39:45.640Z,36.27
2022-10-11T13:42:14.322Z,36.06
2022-10-11T13:44:41.956Z,39.67
2022-10-11T13:47:17.892Z,41.41
2022-10-11T13:49:53.488Z,41.47
2022-10-11T13:52:28.656Z,40.16
2022-10-11T13:55:05.914Z,41.70
2022-10-11T13:57:48.585Z,41.78
2022-10-11T14:00:14.980Z,40.74
2022-10-11T14:03:31.673Z,42.02
2022-10-11T14:05:59.462Z,42.21
2022-10-11T14:08:39.892Z,41.32
2022-10-11T14:11:07.707Z,40.41
2022-10-11T14:13:37.059Z,42.27
2022-10-11T14:16:08.285Z,41.22
2022-10-11T14:18:43.867Z,41.61
2022-10-11T14:21:19.394Z,40.79
2022-10-11T14:23:51.171Z,42.18
2022-10-11T14:26:19.054Z,42.66
2022-10-11T14:28:48.702Z,45.19
2022-10-11T14:31:15.220Z,45.35
2022-10-11T14:33:41.767Z,44.57
2022-10-11T14:36:08.719Z,44.06
2022-10-11T14:38:35.510Z,44.15
2022-10-11T14:41:01.952Z,43.43
2022-10-11T14:43:28.443Z,45.96
2022-10-11T14:45:54.859Z,46.68
2022-10-11T14:48:42.912Z,46.97
2022-10-11T14:51:12.056Z,47.56
2022-10-11T14:53:42.007Z,47.68
2022-10-11T14:56:08.829Z,49.14
2022-10-11T14:58:35.382Z,49.28
2022-10-11T15:01:01.850Z,49.48
2022-10-11T15:03:28.356Z,49.94
2022-10-11T15:05:55.623Z,51.40
2022-10-11T15:08:22.099Z,51.13
2022-10-11T15:10:49.585Z,51.02
2022-10-11T15:13:16.054Z,50.91
2022-10-11T15:15:42.766Z,51.90
2022-10-11T15:18:16.593Z,53.23
2022-10-11T15:20:45.365Z,53.51
2022-10-11T15:23:12.508Z,54.99
2022-10-11T15:25:40.970Z,54.88
2022-10-11T15:28:08.290Z,56.03
2022-10-11T15:30:41.142Z,57.59
2022-10-11T15:33:08.992Z,62.22
2022-10-11T15:35:35.480Z,56.98
2022-10-11T15:38:01.998Z,57.58
2022-10-11T15:40:35.881Z,61.22
2022-10-11T15:43:03.305Z,64.86
2022-10-11T15:45:30.066Z,61.65
2022-10-11T15:47:56.725Z,61.26
2022-10-11T15:50:36.738Z,63.53
2022-10-11T15:53:05.423Z,70.17
2022-10-11T15:55:34.914Z,71.79
2022-10-11T15:58:01.736Z,74.72
2022-10-11T16:00:28.745Z,75.71
2022-10-11T16:02:55.776Z,75.22
2022-10-11T16:05:24.707Z,78.42
2022-10-11T16:07:52.023Z,75.39
2022-10-11T16:10:19.749Z,75.32
2022-10-11T16:12:46.819Z,77.27
2022-10-11T16:15:13.602Z,76.40
2022-10-11T16:17:40.229Z,80.14
2022-10-11T16:20:07.858Z,82.77
2022-10-11T16:22:35.016Z,81.50
2022-10-11T16:25:02.911Z,82.33
2022-10-11T16:27:29.519Z,82.15
2022-10-11T16:29:56.113Z,83.65
2022-10-11T16:32:24.223Z,84.73
2022-10-11T16:34:50.832Z,85.32
2022-10-11T16:37:17.288Z,88.03
2022-10-11T16:39:43.923Z,89.64
2022-10-11T16:42:10.566Z,95.30
2022-10-11T16:44:38.604Z,98.73
2022-10-11T16:47:05.980Z,100.00
2022-10-11T16:49:32.889Z,100.00
2022-10-11T16:52:00.683Z,100.00
2022-10-11T16:54:27.552Z,100.00
2022-10-11T16:56:53.964Z,100.00
2022-10-11T16:59:20.793Z,100.00
2022-10-11T17:01:47.625Z,100.00
2022-10-11T17:04:14.227Z,100.00
2022-10-11T17:06:43.779Z,100.00
2022-10-11T17:09:10.674Z,100.00
2022-10-11T17:11:37.218Z,100.00
2022-10-11T17:14:05.121Z,100.00
2022-10-11T17:16:31.929Z,100.00
2022-10-11T17:18:58.384Z,100.00
2022-10-11T17:21:25.141Z,100.00
2022-10-11T17:23:51.757Z,100.00
2022-10-11T17:26:21.246Z,100.00
2022-10-11T17:28:48.015Z,100.00
2022-10-11T17:31:14.643Z,100.00
2022-10-11T17:33:41.120Z,100.00
2022-10-11T17:36:21.029Z,100.00
2022-10-11T17:38:49.086Z,100.00
2022-10-11T17:41:15.784Z,100.00
2022-10-11T17:43:42.695Z,100.00
2022-10-11T17:46:11.621Z,100.00
2022-10-11T17:48:39.280Z,100.00
2022-10-11T17:51:10.433Z,100.00
2022-10-11T17:53:37.337Z,100.00
2022-10-11T17:56:12.756Z,100.00
2022-10-11T17:58:39.554Z,100.00
2022-10-11T18:01:09.929Z,100.00
2022-10-11T18:03:37.175Z,100.00
2022-10-11T18:06:05.568Z,100.00
2022-10-11T18:08:39.807Z,100.00
2022-10-11T18:11:16.027Z,100.00
2022-10-11T18:13:46.227Z,100.00
2022-10-11T18:16:18.587Z,100.00
2022-10-11T18:18:45.456Z,100.00
2022-10-11T18:21:12.150Z,100.00
2022-10-11T18:23:39.096Z,100.00
2022-10-11T18:26:27.995Z,100.00
2022-10-11T18:28:57.526Z,100.00
2022-10-11T18:31:26.316Z,100.00
2022-10-11T18:33:53.501Z,100.00
2022-10-11T18:36:26.099Z,100.00
2022-10-11T18:38:54.955Z,100.00
2022-10-11T18:41:23.274Z,100.00
2022-10-11T18:43:54.723Z,100.00
2022-10-11T18:46:21.996Z,100.00
2022-10-11T18:48:50.814Z,100.00
2022-10-11T18:51:23.431Z,100.00
2022-10-11T18:53:50.342Z,100.00
2022-10-11T18:56:23.912Z,100.00
2022-10-11T18:58:51.995Z,100.00
2022-10-11T19:01:21.386Z,100.00
2022-10-11T19:03:52.430Z,100.00
2022-10-11T19:06:22.352Z,100.00
2022-10-11T19:08:59.965Z,100.00
2022-10-11T19:11:27.269Z,100.00
2022-10-11T19:13:58.585Z,100.00
2022-10-11T19:16:26.246Z,100.00
2022-10-11T19:18:53.484Z,100.00
2022-10-11T19:21:20.033Z,100.00
2022-10-11T19:23:48.029Z,100.00
2022-10-11T19:26:18.780Z,100.00
2022-10-11T19:28:45.860Z,100.00
2022-10-11T19:31:23.054Z,100.00
2022-10-11T19:33:51.787Z,100.00
2022-10-11T19:36:18.674Z,100.00
2022-10-11T19:38:48.190Z,100.00
2022-10-11T19:41:16.531Z,100.00
2022-10-11T19:43:43.584Z,100.00
2022-10-11T19:46:13.248Z,100.00
2022-10-11T19:48:39.995Z,100.00
2022-10-11T19:51:14.988Z,100.00
2022-10-11T19:53:42.029Z,100.00
2022-10-11T19:56:11.824Z,100.00
2022-10-11T19:58:39.642Z,100.00
2022-10-11T20:01:12.132Z,100.00
2022-10-11T20:03:38.989Z,100.00
2022-10-11T20:06:07.349Z,100.00
2022-10-11T20:08:34.510Z,100.00
2022-10-11T20:11:03.413Z,100.00
2022-10-11T20:13:34.680Z,100.00
2022-10-11T20:16:03.937Z,100.00
2022-10-11T20:18:30.945Z,100.00
2022-10-11T20:21:01.053Z,100.00
2022-10-11T20:23:27.993Z,100.00
2022-10-11T20:26:12.585Z,100.00
2022-10-11T20:28:40.130Z,100.00
2022-10-11T20:31:30.249Z,100.00
2022-10-11T20:33:58.524Z,100.00
2022-10-11T20:36:27.898Z,100.00
2022-10-11T20:38:54.388Z,100.00
2022-10-11T20:41:26.587Z,100.00
2022-10-11T20:43:55.740Z,100.00
2022-10-11T20:46:24.354Z,100.00
2022-10-11T20:49:02.427Z,100.00
2022-10-11T20:51:30.660Z,100.00
2022-10-11T20:53:58.300Z,100.00
2022-10-11T20:56:25.123Z,100.00
2022-10-11T20:58:52.995Z,100.00
2022-10-11T21:01:26.236Z,100.00
2022-10-11T21:03:53.021Z,100.00
2022-10-11T21:06:19.501Z,100.00
2022-10-11T21:08:46.027Z,100.00
2022-10-11T21:11:12.531Z,100.00
2022-10-11T21:13:39.199Z,100.00
2022-10-11T21:16:13.415Z,100.00
2022-10-11T21:18:40.235Z,100.00
2022-10-11T21:21:14.040Z,100.00
2022-10-11T21:23:40.829Z,100.00
2022-10-11T21:26:09.742Z,100.00
2022-10-11T21:28:36.340Z,100.00
2022-10-11T21:31:14.319Z,100.00
2022-10-11T21:33:42.192Z,100.00
2022-10-11T21:36:11.769Z,100.00
2022-10-11T21:38:38.321Z,100.00
2022-10-11T21:41:05.817Z,100.00
2022-10-11T21:43:33.728Z,100.00
2022-10-11T21:46:00.177Z,100.00
2022-10-11T21:48:29.117Z,100.00
2022-10-11T21:50:55.574Z,100.00
2022-10-11T21:53:22.034Z,100.00
2022-10-11T21:55:48.515Z,100.00
2022-10-11T21:58:15.123Z,100.00
2022-10-11T22:00:41.660Z,100.00
2022-10-11T22:03:08.420Z,100.00
2022-10-11T22:05:35.037Z,100.00
2022-10-11T22:08:01.471Z,100.00
2022-10-11T22:10:27.949Z,100.00
2022-10-11T22:12:54.390Z,100.00
2022-10-11T22:15:20.869Z,100.00
2022-10-11T22:17:47.556Z,100.00
2022-10-11T22:20:14.487Z,100.00
2022-10-11T22:22:40.932Z,100.00
2022-10-11T22:25:07.989Z,100.00
2022-10-11T22:27:34.707Z,100.00
2022-10-11T22:30:01.130Z,100.00
2022-10-11T22:32:27.626Z,100.00
2022-10-11T22:34:54.136Z,100.00
2022-10-11T22:37:20.583Z,100.00
2022-10-11T22:39:47.005Z,100.00
2022-10-11T22:42:13.486Z,100.00
2022-10-11T22:44:39.902Z,100.00
2022-10-11T22:47:06.392Z,100.00
2022-10-11T22:49:32.841Z,100.00
2022-10-11T22:51:59.434Z,100.00
2022-10-11T22:54:26.337Z,100.00
2022-10-11T22:56:52.815Z,100.00
2022-10-11T22:59:19.315Z,100.00
2022-10-11T23:01:45.766Z,100.00
2022-10-11T23:04:12.275Z,100.00
2022-10-11T23:06:38.740Z,100.00
2022-10-11T23:09:05.215Z,100.00
2022-10-11T23:11:31.651Z,100.00
2022-10-11T23:13:58.108Z,100.00
2022-10-11T23:16:25.483Z,100.00
2022-10-11T23:18:53.541Z,100.00
2022-10-11T23:21:20.541Z,100.00
2022-10-11T23:23:47.229Z,100.00
2022-10-11T23:26:15.467Z,100.00
2022-10-11T23:28:43.187Z,100.00
2022-10-11T23:31:14.999Z,100.00
2022-10-11T23:33:41.471Z,100.00
2022-10-11T23:36:14.237Z,100.00
2022-10-11T23:38:40.793Z,100.00
2022-10-11T23:41:07.219Z,100.00
2022-10-11T23:43:33.635Z,100.00
2022-10-11T23:46:00.613Z,100.00
2022-10-11T23:48:27.043Z,100.00
2022-10-11T23:50:53.491Z,100.00
2022-10-11T23:53:20.162Z,100.00
2022-10-11T23:55:46.659Z,100.00
2022-10-11T23:58:13.303Z,100.00
